createdAt,value
2023-04-12T00:01:16.026Z,4.53
2023-04-12T00:03:50.509Z,4.60
2023-04-12T00:06:18.578Z,4.40
2023-04-12T00:08:47.266Z,4.73
2023-04-12T00:11:14.892Z,4.53
2023-04-12T00:13:42.562Z,4.30
2023-04-12T00:16:10.681Z,4.53
2023-04-12T00:18:38.383Z,4.87
2023-04-12T00:21:08.670Z,4.83
2023-04-12T00:23:37.923Z,4.70
2023-04-12T00:26:06.047Z,4.50
2023-04-12T00:28:34.035Z,4.80
2023-04-12T00:31:01.751Z,4.23
2023-04-12T00:33:29.400Z,4.70
2023-04-12T00:35:57.240Z,4.73
2023-04-12T00:38:26.344Z,4.30
2023-04-12T00:40:53.989Z,4.30
2023-04-12T00:43:21.676Z,4.50
2023-04-12T00:45:49.456Z,5.47
2023-04-12T00:48:17.595Z,4.40
2023-04-12T00:50:46.845Z,4.40
2023-04-12T00:53:15.048Z,4.77
2023-04-12T00:55:45.373Z,4.30
2023-04-12T00:58:14.101Z,3.87
2023-04-12T01:00:41.870Z,4.47
2023-04-12T01:03:09.635Z,4.07
2023-04-12T01:05:44.583Z,3.80
2023-04-12T01:08:19.676Z,4.40
2023-04-12T01:10:57.895Z,3.20
2023-04-12T01:13:33.435Z,4.00
2023-04-12T01:16:08.948Z,4.37
2023-04-12T01:18:41.628Z,4.83
2023-04-12T01:21:11.762Z,3.97
2023-04-12T01:24:04.600Z,4.70
2023-04-12T01:26:37.644Z,3.90
2023-04-12T01:29:11.796Z,4.20
2023-04-12T01:31:42.296Z,4.20
2023-04-12T01:34:13.018Z,3.70
2023-04-12T01:36:43.623Z,4.20
2023-04-12T01:39:11.731Z,4.40
2023-04-12T01:41:42.119Z,3.80
2023-04-12T01:44:14.137Z,3.53
2023-04-12T01:46:42.477Z,3.43
2023-04-12T01:49:11.086Z,4.47
2023-04-12T01:51:50.296Z,3.73
2023-04-12T01:54:22.778Z,3.87
2023-04-12T01:56:57.796Z,3.77
2023-04-12T01:59:31.656Z,3.47
2023-04-12T02:01:59.699Z,3.50
2023-04-12T02:04:28.754Z,3.33
2023-04-12T02:06:56.942Z,3.10
2023-04-12T02:09:24.798Z,3.40
2023-04-12T02:11:52.442Z,3.67
2023-04-12T02:14:20.143Z,3.30
2023-04-12T02:16:50.577Z,4.23
2023-04-12T02:19:19.348Z,4.00
2023-04-12T02:21:47.472Z,3.67
2023-04-12T02:24:16.543Z,3.60
2023-04-12T02:26:44.159Z,3.53
2023-04-12T02:29:12.040Z,3.53
2023-04-12T02:31:39.825Z,3.47
2023-04-12T02:34:08.916Z,3.53
2023-04-12T02:36:37.920Z,4.00
2023-04-12T02:39:06.310Z,3.67
2023-04-12T02:41:34.199Z,3.53
2023-04-12T02:44:01.884Z,3.70
2023-04-12T02:46:29.538Z,3.07
2023-04-12T02:48:57.459Z,3.60
2023-04-12T02:51:28.027Z,3.93
2023-04-12T02:53:56.006Z,3.50
2023-04-12T02:56:24.670Z,3.40
2023-04-12T02:58:52.497Z,3.43
2023-04-12T03:01:20.429Z,3.17
2023-04-12T03:03:48.162Z,3.60
2023-04-12T03:06:15.927Z,3.33
2023-04-12T03:08:44.905Z,3.33
2023-04-12T03:11:12.645Z,3.40
2023-04-12T03:13:40.237Z,3.50
2023-04-12T03:16:23.393Z,3.50
2023-04-12T03:18:51.696Z,3.67
2023-04-12T03:21:19.314Z,3.10
2023-04-12T03:23:48.237Z,3.07
2023-04-12T03:26:15.909Z,3.30
2023-04-12T03:28:45.708Z,3.40
2023-04-12T03:31:13.554Z,3.30
2023-04-12T03:33:41.520Z,3.93
2023-04-12T03:36:10.578Z,3.30
2023-04-12T03:38:38.316Z,3.83
2023-04-12T03:41:08.124Z,3.73
2023-04-12T03:43:37.415Z,3.47
2023-04-12T03:46:05.706Z,3.13
2023-04-12T03:48:33.545Z,3.30
2023-04-12T03:51:08.603Z,3.50
2023-04-12T03:53:36.971Z,3.10
2023-04-12T03:56:04.650Z,3.20
2023-04-12T03:58:33.992Z,3.20
2023-04-12T04:01:03.868Z,3.43
2023-04-12T04:03:34.895Z,3.30
2023-04-12T04:06:02.970Z,3.50
2023-04-12T04:08:32.562Z,3.50
2023-04-12T04:11:00.855Z,3.47
2023-04-12T04:13:28.482Z,3.50
2023-04-12T04:16:01.237Z,2.97
2023-04-12T04:18:28.876Z,3.53
2023-04-12T04:20:56.681Z,3.60
2023-04-12T04:23:24.374Z,3.63
2023-04-12T04:25:54.294Z,3.47
2023-04-12T04:28:22.192Z,3.67
2023-04-12T04:30:51.648Z,3.40
2023-04-12T04:33:21.171Z,3.37
2023-04-12T04:35:48.836Z,3.80
2023-04-12T04:38:16.760Z,3.40
2023-04-12T04:40:44.420Z,3.40
2023-04-12T04:43:13.917Z,3.67
2023-04-12T04:45:42.911Z,3.30
2023-04-12T04:48:11.689Z,3.47
2023-04-12T04:50:40.925Z,3.20
2023-04-12T04:53:08.706Z,3.67
2023-04-12T04:55:36.380Z,3.47
2023-04-12T04:58:04.040Z,2.97
2023-04-12T05:00:31.712Z,3.30
2023-04-12T05:02:59.449Z,3.63
2023-04-12T05:05:27.265Z,3.27
2023-04-12T05:07:57.306Z,3.40
2023-04-12T05:10:25.219Z,3.20
2023-04-12T05:12:52.910Z,3.50
2023-04-12T05:15:21.323Z,3.30
2023-04-12T05:17:48.993Z,3.00
2023-04-12T05:20:16.638Z,3.50
2023-04-12T05:22:44.248Z,3.37
2023-04-12T05:25:13.834Z,3.20
2023-04-12T05:27:41.461Z,3.07
2023-04-12T05:30:10.254Z,3.50
2023-04-12T05:32:37.935Z,3.20
2023-04-12T05:35:06.829Z,3.50
2023-04-12T05:37:34.440Z,3.10
2023-04-12T05:40:02.089Z,3.17
2023-04-12T05:42:31.233Z,3.10
2023-04-12T05:44:58.973Z,3.43
2023-04-12T05:47:26.559Z,3.53
2023-04-12T05:49:55.029Z,3.00
2023-04-12T05:52:22.647Z,2.90
2023-04-12T05:54:50.299Z,2.97
2023-04-12T05:57:18.306Z,3.50
2023-04-12T05:59:47.275Z,2.83
2023-04-12T06:02:14.997Z,2.70
2023-04-12T06:04:50.764Z,3.03
2023-04-12T06:07:19.957Z,3.60
2023-04-12T06:09:48.188Z,2.90
2023-04-12T06:12:16.231Z,2.60
2023-04-12T06:14:43.858Z,3.43
2023-04-12T06:17:12.867Z,3.00
2023-04-12T06:19:40.598Z,3.00
2023-04-12T06:22:08.192Z,2.73
2023-04-12T06:24:35.891Z,2.80
2023-04-12T06:27:03.778Z,2.77
2023-04-12T06:29:31.406Z,2.90
2023-04-12T06:31:59.199Z,2.50
2023-04-12T06:34:28.218Z,3.10
2023-04-12T06:36:57.394Z,2.77
2023-04-12T06:39:25.171Z,2.97
2023-04-12T06:41:52.810Z,2.87
2023-04-12T06:44:20.559Z,3.30
2023-04-12T06:46:48.307Z,2.63
2023-04-12T06:49:15.945Z,2.57
2023-04-12T06:51:45.043Z,2.57
2023-04-12T06:54:12.762Z,2.60
2023-04-12T06:56:40.964Z,2.60
2023-04-12T06:59:09.029Z,2.70
2023-04-12T07:01:36.662Z,3.20
2023-04-12T07:04:04.626Z,2.70
2023-04-12T07:06:32.824Z,2.60
2023-04-12T07:09:01.822Z,2.63
2023-04-12T07:11:29.507Z,2.90
2023-04-12T07:13:59.043Z,2.73
2023-04-12T07:16:26.865Z,3.07
2023-04-12T07:18:54.506Z,2.70
2023-04-12T07:21:22.486Z,3.37
2023-04-12T07:23:51.205Z,2.60
2023-04-12T07:26:21.649Z,2.63
2023-04-12T07:28:49.376Z,2.23
2023-04-12T07:31:17.122Z,2.20
2023-04-12T07:33:45.094Z,2.47
2023-04-12T07:36:13.016Z,2.57
2023-04-12T07:38:40.645Z,2.47
2023-04-12T07:41:08.487Z,2.50
2023-04-12T07:43:37.446Z,2.30
2023-04-12T07:46:08.403Z,2.37
2023-04-12T07:48:36.241Z,2.20
2023-04-12T07:51:03.945Z,2.37
2023-04-12T07:53:31.582Z,2.50
2023-04-12T07:55:59.222Z,3.00
2023-04-12T07:58:26.844Z,2.30
2023-04-12T08:00:58.576Z,2.13
2023-04-12T08:03:27.660Z,2.30
2023-04-12T08:05:55.454Z,2.80
2023-04-12T08:08:23.729Z,1.97
2023-04-12T08:10:52.284Z,2.30
2023-04-12T08:13:20.643Z,2.43
2023-04-12T08:15:48.365Z,2.30
2023-04-12T08:18:17.554Z,2.33
2023-04-12T08:20:45.491Z,2.33
2023-04-12T08:23:13.254Z,2.13
2023-04-12T08:25:40.914Z,2.30
2023-04-12T08:28:09.093Z,2.40
2023-04-12T08:30:37.240Z,2.53
2023-04-12T08:33:04.973Z,2.67
2023-04-12T08:35:34.122Z,2.30
2023-04-12T08:38:07.243Z,2.70
2023-04-12T08:40:34.908Z,2.70
2023-04-12T08:43:04.030Z,2.50
2023-04-12T08:45:35.345Z,2.10
2023-04-12T08:48:03.991Z,2.60
2023-04-12T08:50:32.285Z,2.30
2023-04-12T08:53:01.335Z,2.10
2023-04-12T08:55:28.986Z,2.80
2023-04-12T08:57:56.967Z,2.70
2023-04-12T09:00:25.713Z,2.30
2023-04-12T09:02:53.647Z,2.63
2023-04-12T09:05:23.048Z,2.50
2023-04-12T09:07:50.785Z,2.53
2023-04-12T09:10:33.609Z,2.40
2023-04-12T09:13:01.727Z,2.77
2023-04-12T09:15:29.357Z,2.50
2023-04-12T09:18:08.387Z,2.33
2023-04-12T09:20:36.614Z,2.70
2023-04-12T09:23:18.379Z,2.80
2023-04-12T09:25:50.208Z,2.47
2023-04-12T09:28:25.988Z,2.67
2023-04-12T09:30:54.865Z,2.30
2023-04-12T09:33:24.333Z,2.37
2023-04-12T09:35:52.151Z,2.37
2023-04-12T09:38:20.486Z,2.70
2023-04-12T09:40:50.220Z,3.03
2023-04-12T09:43:17.880Z,2.50
2023-04-12T09:45:45.544Z,2.40
2023-04-12T09:48:20.236Z,2.30
2023-04-12T09:50:47.984Z,2.70
2023-04-12T09:53:18.184Z,2.53
2023-04-12T09:55:47.598Z,2.20
2023-04-12T09:58:20.482Z,2.50
2023-04-12T10:00:48.621Z,2.40
2023-04-12T10:03:16.404Z,2.27
2023-04-12T10:05:44.158Z,2.60
2023-04-12T10:08:12.913Z,2.67
2023-04-12T10:10:40.830Z,2.93
2023-04-12T10:13:10.178Z,2.57
2023-04-12T10:15:40.642Z,2.80
2023-04-12T10:18:08.555Z,2.80
2023-04-12T10:20:36.353Z,3.00
2023-04-12T10:23:03.964Z,2.67
2023-04-12T10:25:32.007Z,2.90
2023-04-12T10:28:14.760Z,2.80
2023-04-12T10:30:43.954Z,2.87
2023-04-12T10:33:16.848Z,2.60
2023-04-12T10:36:00.938Z,2.93
2023-04-12T10:38:34.557Z,2.70
2023-04-12T10:41:24.854Z,2.50
2023-04-12T10:43:53.231Z,2.67
2023-04-12T10:46:53.269Z,2.60
2023-04-12T10:49:21.035Z,2.63
2023-04-12T10:52:15.911Z,2.97
2023-04-12T10:54:43.855Z,2.77
2023-04-12T10:57:42.266Z,2.83
2023-04-12T11:00:10.845Z,2.70
2023-04-12T11:03:11.981Z,3.80
2023-04-12T11:06:09.317Z,3.50
2023-04-12T11:08:41.010Z,3.60
2023-04-12T11:11:21.238Z,3.13
2023-04-12T11:13:48.959Z,3.37
2023-04-12T11:16:16.671Z,3.13
2023-04-12T11:18:47.562Z,3.30
2023-04-12T11:21:15.673Z,3.50
2023-04-12T11:23:44.526Z,3.73
2023-04-12T11:26:12.222Z,3.53
2023-04-12T11:28:39.853Z,3.23
2023-04-12T11:31:07.701Z,2.77
2023-04-12T11:33:36.929Z,3.13
2023-04-12T11:36:07.497Z,3.07
2023-04-12T11:38:37.903Z,3.10
2023-04-12T11:41:07.021Z,3.33
2023-04-12T11:43:35.372Z,3.40
2023-04-12T11:46:03.526Z,3.27
2023-04-12T11:48:31.619Z,3.50
2023-04-12T11:51:11.106Z,3.60
2023-04-12T11:53:40.661Z,3.83
2023-04-12T11:56:11.568Z,4.03
2023-04-12T11:58:39.303Z,3.63
2023-04-12T12:01:07.148Z,3.53
2023-04-12T12:03:35.353Z,3.30
2023-04-12T12:06:03.941Z,3.10
2023-04-12T12:08:32.151Z,3.30
2023-04-12T12:11:07.822Z,2.80
2023-04-12T12:13:47.505Z,2.50
2023-04-12T12:16:15.455Z,2.93
2023-04-12T12:18:43.822Z,2.90
2023-04-12T12:21:12.853Z,2.90
2023-04-12T12:23:43.940Z,3.00
2023-04-12T12:26:21.064Z,3.10
2023-04-12T12:28:51.678Z,2.90
2023-04-12T12:31:21.434Z,2.90
2023-04-12T12:33:49.255Z,3.23
2023-04-12T12:36:20.422Z,3.60
2023-04-12T12:38:49.402Z,3.20
2023-04-12T12:41:21.113Z,3.33
2023-04-12T12:43:49.564Z,3.67
2023-04-12T12:46:18.858Z,4.10
2023-04-12T12:48:47.972Z,3.87
2023-04-12T12:51:17.911Z,4.10
2023-04-12T12:53:46.018Z,4.23
2023-04-12T12:56:15.321Z,4.13
2023-04-12T12:58:44.269Z,4.40
2023-04-12T13:01:12.151Z,4.20
2023-04-12T13:03:39.967Z,4.20
2023-04-12T13:06:08.747Z,4.10
2023-04-12T13:08:37.210Z,4.13
2023-04-12T13:11:05.137Z,3.57
2023-04-12T13:13:33.442Z,4.23
2023-04-12T13:16:02.454Z,4.43
2023-04-12T13:18:30.157Z,4.67
2023-04-12T13:20:57.827Z,4.10
2023-04-12T13:23:25.478Z,4.10
2023-04-12T13:25:53.405Z,4.07
2023-04-12T13:28:21.404Z,4.20
2023-04-12T13:30:49.359Z,3.97
2023-04-12T13:33:21.621Z,3.80
2023-04-12T13:35:49.973Z,4.17
2023-04-12T13:38:17.589Z,4.50
2023-04-12T13:40:45.266Z,4.47
2023-04-12T13:43:12.912Z,5.33
2023-04-12T13:45:40.686Z,4.00
2023-04-12T13:48:08.399Z,4.20
2023-04-12T13:50:37.533Z,3.80
2023-04-12T13:53:05.100Z,3.80
2023-04-12T13:55:32.708Z,4.00
2023-04-12T13:58:00.302Z,3.80
2023-04-12T14:00:27.959Z,3.90
2023-04-12T14:02:55.620Z,3.57
2023-04-12T14:05:23.615Z,3.70
2023-04-12T14:07:52.741Z,3.60
2023-04-12T14:10:20.376Z,3.47
2023-04-12T14:12:48.016Z,3.63
2023-04-12T14:15:16.410Z,3.90
2023-04-12T14:17:44.137Z,3.73
2023-04-12T14:20:12.466Z,3.70
2023-04-12T14:22:40.102Z,4.40
2023-04-12T14:25:11.712Z,3.80
2023-04-12T14:27:39.311Z,3.77
2023-04-12T14:30:08.435Z,3.73
2023-04-12T14:32:36.169Z,4.23
2023-04-12T14:35:04.208Z,3.70
2023-04-12T14:37:32.817Z,3.40
2023-04-12T14:40:00.683Z,3.57
2023-04-12T14:42:29.654Z,3.50
2023-04-12T14:44:57.505Z,3.83
2023-04-12T14:47:25.300Z,3.23
2023-04-12T14:49:53.023Z,3.53
2023-04-12T14:52:20.781Z,4.43
2023-04-12T14:54:48.403Z,3.60
2023-04-12T14:57:16.239Z,3.17
2023-04-12T14:59:45.617Z,3.90
2023-04-12T15:02:13.528Z,3.10
2023-04-12T15:04:41.358Z,3.00
2023-04-12T15:07:09.072Z,3.90
2023-04-12T15:09:36.793Z,2.93
2023-04-12T15:12:04.521Z,3.00
2023-04-12T15:14:32.137Z,3.30
2023-04-12T15:17:01.128Z,3.00
2023-04-12T15:19:28.779Z,3.63
2023-04-12T15:21:56.441Z,3.43
2023-04-12T15:24:25.124Z,2.93
2023-04-12T15:26:53.599Z,3.70
2023-04-12T15:29:22.219Z,3.67
2023-04-12T15:31:50.362Z,3.00
2023-04-12T15:34:19.486Z,3.60
2023-04-12T15:36:47.236Z,3.23
2023-04-12T15:39:15.187Z,2.63
2023-04-12T15:41:43.540Z,3.30
2023-04-12T15:44:13.291Z,3.40
2023-04-12T15:46:42.101Z,3.40
2023-04-12T15:49:10.193Z,3.40
2023-04-12T15:51:39.606Z,3.33
2023-04-12T15:54:07.258Z,3.13
2023-04-12T15:56:35.436Z,3.27
2023-04-12T15:59:03.132Z,3.20
2023-04-12T16:01:30.881Z,2.93
2023-04-12T16:03:58.792Z,3.00
2023-04-12T16:06:26.738Z,3.30
2023-04-12T16:08:57.283Z,3.00
2023-04-12T16:11:25.460Z,3.53
2023-04-12T16:13:54.462Z,3.20
2023-04-12T16:16:25.326Z,3.50
2023-04-12T16:18:55.741Z,3.33
2023-04-12T16:21:26.344Z,3.23
2023-04-12T16:23:55.421Z,3.63
2023-04-12T16:26:23.353Z,3.47
2023-04-12T16:28:53.174Z,3.40
2023-04-12T16:31:21.767Z,3.37
2023-04-12T16:33:50.902Z,3.77
2023-04-12T16:36:19.075Z,3.93
2023-04-12T16:38:46.785Z,3.57
2023-04-12T16:41:17.293Z,3.63
2023-04-12T16:43:45.615Z,4.10
2023-04-12T16:46:13.968Z,4.37
2023-04-12T16:48:42.159Z,4.10
2023-04-12T16:51:09.794Z,4.30
2023-04-12T16:53:37.724Z,4.43
2023-04-12T16:56:05.710Z,5.47
2023-04-12T16:58:34.758Z,4.03
2023-04-12T17:01:02.575Z,5.63
2023-04-12T17:03:30.340Z,4.13
2023-04-12T17:05:58.205Z,4.10
2023-04-12T17:08:25.930Z,4.93
2023-04-12T17:10:54.239Z,4.87
2023-04-12T17:13:22.076Z,4.97
2023-04-12T17:15:51.100Z,7.80
2023-04-12T17:18:18.851Z,5.23
2023-04-12T17:20:47.210Z,4.67
2023-04-12T17:23:16.673Z,4.40
2023-04-12T17:25:44.838Z,4.23
2023-04-12T17:28:13.026Z,6.27
2023-04-12T17:30:41.072Z,7.57
2023-04-12T17:33:10.080Z,8.13
2023-04-12T17:35:37.807Z,5.63
2023-04-12T17:38:05.470Z,5.00
2023-04-12T17:40:33.093Z,5.70
2023-04-12T17:43:00.733Z,5.73
2023-04-12T17:45:28.680Z,6.63
2023-04-12T17:47:56.409Z,13.60
2023-04-12T17:50:25.671Z,6.30
2023-04-12T17:52:55.284Z,5.50
2023-04-12T17:55:25.759Z,4.90
2023-04-12T17:57:53.474Z,6.60
2023-04-12T18:00:23.467Z,5.30
2023-04-12T18:02:51.444Z,6.03
2023-04-12T18:05:19.309Z,7.20
2023-04-12T18:07:48.298Z,6.00
2023-04-12T18:10:18.912Z,6.93
2023-04-12T18:12:48.219Z,6.77
2023-04-12T18:15:15.902Z,6.43
2023-04-12T18:17:43.578Z,6.70
2023-04-12T18:20:12.015Z,6.23
2023-04-12T18:22:39.991Z,6.67
2023-04-12T18:25:11.526Z,8.20
2023-04-12T18:27:39.167Z,7.07
2023-04-12T18:30:08.270Z,6.70
2023-04-12T18:32:36.085Z,7.10
2023-04-12T18:35:04.599Z,7.20
2023-04-12T18:37:32.215Z,6.83
2023-04-12T18:40:00.456Z,6.57
2023-04-12T18:42:29.500Z,6.60
2023-04-12T18:44:58.236Z,6.63
2023-04-12T18:47:27.082Z,6.17
2023-04-12T18:49:55.017Z,5.60
2023-04-12T18:52:22.723Z,4.60
2023-04-12T18:54:50.622Z,4.60
2023-04-12T18:57:18.481Z,4.80
2023-04-12T18:59:48.846Z,4.93
2023-04-12T19:02:18.091Z,5.40
2023-04-12T19:04:46.102Z,5.60
2023-04-12T19:07:13.741Z,5.60
2023-04-12T19:09:42.177Z,5.90
2023-04-12T19:12:09.840Z,6.03
2023-04-12T19:14:37.562Z,5.53
2023-04-12T19:17:06.520Z,5.60
2023-04-12T19:19:34.119Z,5.73
2023-04-12T19:22:01.788Z,6.00
2023-04-12T19:24:29.497Z,5.97
2023-04-12T19:26:57.541Z,6.53
2023-04-12T19:29:26.069Z,4.90
2023-04-12T19:31:54.229Z,4.13
2023-04-12T19:34:23.269Z,3.03
2023-04-12T19:36:51.088Z,2.60
2023-04-12T19:39:19.954Z,2.50
2023-04-12T19:41:49.058Z,2.43
2023-04-12T19:44:16.705Z,2.80
2023-04-12T19:46:44.450Z,2.40
2023-04-12T19:49:12.129Z,2.60
2023-04-12T19:51:41.224Z,2.50
2023-04-12T19:54:09.924Z,2.53
2023-04-12T19:56:37.669Z,2.37
2023-04-12T19:59:06.568Z,2.23
2023-04-12T20:01:35.256Z,2.30
2023-04-12T20:04:05.554Z,2.30
2023-04-12T20:06:33.292Z,2.40
2023-04-12T20:09:02.360Z,2.60
2023-04-12T20:11:30.664Z,2.67
2023-04-12T20:13:58.707Z,2.47
2023-04-12T20:16:26.514Z,2.27
2023-04-12T20:18:57.559Z,2.80
2023-04-12T20:21:25.994Z,2.60
2023-04-12T20:23:53.629Z,3.60
2023-04-12T20:26:22.999Z,2.67
2023-04-12T20:28:50.805Z,2.60
2023-04-12T20:31:19.414Z,2.90
2023-04-12T20:33:47.120Z,2.60
2023-04-12T20:36:15.796Z,2.23
2023-04-12T20:38:43.682Z,2.57
2023-04-12T20:41:11.668Z,2.57
2023-04-12T20:43:45.830Z,2.60
2023-04-12T20:46:15.617Z,2.30
2023-04-12T20:48:43.488Z,2.40
2023-04-12T20:51:13.844Z,2.47
2023-04-12T20:53:43.599Z,2.37
2023-04-12T20:56:11.229Z,2.43
2023-04-12T20:58:39.023Z,2.17
2023-04-12T21:01:14.635Z,2.30
2023-04-12T21:03:43.299Z,2.33
2023-04-12T21:06:11.681Z,2.67
2023-04-12T21:08:39.763Z,2.60
2023-04-12T21:11:07.466Z,2.77
2023-04-12T21:13:35.447Z,2.73
2023-04-12T21:16:03.845Z,3.10
2023-04-12T21:18:34.215Z,2.70
2023-04-12T21:21:02.207Z,2.80
2023-04-12T21:23:30.152Z,2.53
2023-04-12T21:25:57.864Z,2.43
2023-04-12T21:28:25.767Z,2.80
2023-04-12T21:30:56.405Z,2.90
2023-04-12T21:33:26.182Z,2.80
2023-04-12T21:35:56.618Z,2.70
2023-04-12T21:38:25.012Z,2.70
2023-04-12T21:40:57.152Z,2.67
2023-04-12T21:43:24.797Z,3.00
2023-04-12T21:45:52.482Z,2.73
2023-04-12T21:48:20.264Z,2.90
2023-04-12T21:50:48.236Z,3.73
2023-04-12T21:53:17.627Z,2.93
2023-04-12T21:55:45.273Z,3.37
2023-04-12T21:58:12.881Z,3.40
2023-04-12T22:00:41.670Z,3.37
2023-04-12T22:03:09.446Z,4.00
2023-04-12T22:05:39.606Z,3.63
2023-04-12T22:08:08.202Z,4.07
2023-04-12T22:10:37.190Z,4.00
2023-04-12T22:13:05.062Z,4.03
2023-04-12T22:15:32.775Z,4.10
2023-04-12T22:18:00.514Z,3.97
2023-04-12T22:20:29.428Z,4.10
2023-04-12T22:22:57.208Z,4.10
2023-04-12T22:25:25.149Z,4.57
2023-04-12T22:27:57.738Z,5.20
2023-04-12T22:30:25.926Z,4.97
2023-04-12T22:32:53.719Z,4.97
2023-04-12T22:35:22.673Z,4.10
2023-04-12T22:37:50.759Z,4.60
2023-04-12T22:40:18.763Z,4.60
2023-04-12T22:42:47.336Z,4.10
2023-04-12T22:45:18.128Z,4.33
2023-04-12T22:47:47.557Z,4.33
2023-04-12T22:50:15.272Z,4.40
2023-04-12T22:52:43.021Z,4.20
2023-04-12T22:55:12.671Z,3.80
2023-04-12T22:57:40.306Z,4.40
2023-04-12T23:00:14.944Z,4.00
2023-04-12T23:02:46.227Z,4.00
2023-04-12T23:05:14.474Z,4.00
2023-04-12T23:07:43.391Z,4.00
2023-04-12T23:10:12.093Z,3.83
2023-04-12T23:12:39.849Z,3.97
2023-04-12T23:15:08.991Z,3.57
2023-04-12T23:17:36.702Z,3.80
2023-04-12T23:20:09.911Z,3.57
2023-04-12T23:22:56.874Z,3.80
2023-04-12T23:25:38.884Z,3.70
2023-04-12T23:28:13.469Z,3.73
2023-04-12T23:30:43.806Z,3.77
2023-04-12T23:33:12.236Z,3.57
2023-04-12T23:35:42.409Z,3.67
2023-04-12T23:38:10.112Z,4.17
2023-04-12T23:40:37.926Z,4.30
2023-04-12T23:43:05.539Z,4.60
2023-04-12T23:45:33.144Z,5.40
2023-04-12T23:48:00.736Z,5.53
2023-04-12T23:50:29.118Z,6.07
2023-04-12T23:52:58.189Z,6.30
2023-04-12T23:55:26.259Z,6.07
2023-04-12T23:57:53.846Z,7.03
